QTR8095 LEZG-VGHS
Flight info
| Callsign | QTR8095 |
|---|---|
| Flight time | N/A |
| Altitude | 36000 |
| Route | GRAUS DCT PIVUS N870 DIBER DCT ZETCO DCT MOULE DCT OKBIS DCT XAMIT DCT DIXUM DCT TORTO DCT ETIDA Q7 IVGOT L744 UDROS UM859 KARDE UN644 ROLIN N644 LAGAS M747 SUBUT T923 ERLEV M11 RODAR A909 NINOP B475 DAVET P173 TAPIS L509 SULOM A466 ASARI L509 GUGIP B345 KEVOD J71 PPT A201 RAJ G463 IDLOX |
| Aircraft | B77L/H-SDE1E2E3FGHIJ2J3J4J5M1RWXY/LB1D1 |
Departure
| Time | N/A |
|---|---|
| Airport | Zaragoza Airport (LEZG) |
Arrival
| Time | 2026-04-28 08:03 |
|---|---|
| Airport | Hazrat Shahjalal International Airport (VGHS) |
| Time | Latitude | Longitude | Altitude | Speed | Heading |
|---|---|---|---|---|---|
| 2026-04-28 07:22 | 25.00265 | 87.27255 | 36725 ft | 512 kts | 116° |
| 2026-04-28 07:22 | 24.98766 | 87.30811 | 36701 ft | 512 kts | 116° |
| 2026-04-28 07:22 | 24.95784 | 87.37877 | 36711 ft | 512 kts | 116° |
| 2026-04-28 07:23 | 24.92779 | 87.44989 | 36723 ft | 512 kts | 116° |
| 2026-04-28 07:23 | 24.89766 | 87.52106 | 36712 ft | 513 kts | 116° |
| 2026-04-28 07:24 | 24.86747 | 87.59226 | 36709 ft | 513 kts | 116° |
| 2026-04-28 07:24 | 24.83724 | 87.66345 | 36712 ft | 513 kts | 116° |
| 2026-04-28 07:25 | 24.80702 | 87.73452 | 36714 ft | 513 kts | 116° |
| 2026-04-28 07:25 | 24.77672 | 87.80570 | 36713 ft | 513 kts | 116° |
| 2026-04-28 07:26 | 24.74719 | 87.87714 | 36722 ft | 513 kts | 115° |
| 2026-04-28 07:26 | 24.73257 | 87.91294 | 36607 ft | 515 kts | 115° |
| 2026-04-28 07:26 | 24.71780 | 87.94903 | 36125 ft | 517 kts | 115° |
| 2026-04-28 07:27 | 24.70306 | 87.98484 | 35655 ft | 512 kts | 115° |
| 2026-04-28 07:27 | 24.68893 | 88.01908 | 35181 ft | 507 kts | 115° |
| 2026-04-28 07:27 | 24.67439 | 88.05418 | 34703 ft | 502 kts | 115° |
| 2026-04-28 07:27 | 24.65991 | 88.08890 | 34228 ft | 497 kts | 115° |
| 2026-04-28 07:28 | 24.64553 | 88.12325 | 33734 ft | 494 kts | 114° |
| 2026-04-28 07:28 | 24.63120 | 88.15746 | 33188 ft | 490 kts | 114° |
| 2026-04-28 07:28 | 24.61700 | 88.19137 | 32693 ft | 486 kts | 114° |
| 2026-04-28 07:28 | 24.60293 | 88.22497 | 32201 ft | 482 kts | 114° |
| 2026-04-28 07:29 | 24.58901 | 88.25820 | 31723 ft | 477 kts | 114° |
| 2026-04-28 07:29 | 24.57520 | 88.29116 | 31255 ft | 473 kts | 114° |
| 2026-04-28 07:29 | 24.56147 | 88.32391 | 30794 ft | 469 kts | 114° |
| 2026-04-28 07:29 | 24.54786 | 88.35636 | 30328 ft | 466 kts | 114° |
| 2026-04-28 07:30 | 24.53433 | 88.38857 | 29868 ft | 463 kts | 114° |
| 2026-04-28 07:30 | 24.52089 | 88.42055 | 29330 ft | 460 kts | 114° |
| 2026-04-28 07:30 | 24.50757 | 88.45225 | 28821 ft | 456 kts | 114° |
| 2026-04-28 07:30 | 24.49432 | 88.48373 | 28340 ft | 452 kts | 114° |
| 2026-04-28 07:31 | 24.48135 | 88.51454 | 27880 ft | 448 kts | 115° |
| 2026-04-28 07:31 | 24.46817 | 88.54584 | 27413 ft | 445 kts | 115° |
| 2026-04-28 07:31 | 24.45540 | 88.57612 | 26968 ft | 441 kts | 115° |
| 2026-04-28 07:31 | 24.44239 | 88.60699 | 26498 ft | 438 kts | 114° |
| 2026-04-28 07:32 | 24.43085 | 88.63780 | 26070 ft | 435 kts | 111° |
| 2026-04-28 07:32 | 24.42051 | 88.66838 | 25641 ft | 432 kts | 110° |
| 2026-04-28 07:32 | 24.41016 | 88.69969 | 25199 ft | 430 kts | 110° |
| 2026-04-28 07:32 | 24.40015 | 88.73005 | 24760 ft | 428 kts | 110° |
| 2026-04-28 07:33 | 24.38987 | 88.76112 | 24306 ft | 426 kts | 110° |
| 2026-04-28 07:33 | 24.37973 | 88.79161 | 23883 ft | 425 kts | 111° |
| 2026-04-28 07:33 | 24.36956 | 88.82200 | 23446 ft | 424 kts | 111° |
| 2026-04-28 07:33 | 24.35941 | 88.85228 | 22960 ft | 423 kts | 111° |
| 2026-04-28 07:34 | 24.34927 | 88.88242 | 22501 ft | 420 kts | 111° |
| 2026-04-28 07:34 | 24.33917 | 88.91241 | 22060 ft | 418 kts | 111° |
| 2026-04-28 07:34 | 24.32925 | 88.94184 | 21641 ft | 416 kts | 111° |
| 2026-04-28 07:34 | 24.31911 | 88.97191 | 21216 ft | 414 kts | 111° |
| 2026-04-28 07:35 | 24.30939 | 89.00072 | 20786 ft | 412 kts | 111° |
| 2026-04-28 07:35 | 24.29969 | 89.02943 | 20359 ft | 411 kts | 111° |
| 2026-04-28 07:35 | 24.28977 | 89.05878 | 19922 ft | 410 kts | 111° |
| 2026-04-28 07:35 | 24.27985 | 89.08812 | 19504 ft | 410 kts | 111° |
| 2026-04-28 07:36 | 24.26997 | 89.11733 | 19070 ft | 409 kts | 111° |
| 2026-04-28 07:36 | 24.26007 | 89.14655 | 18632 ft | 409 kts | 111° |
| 2026-04-28 07:36 | 24.25017 | 89.17577 | 18201 ft | 409 kts | 111° |
| 2026-04-28 07:36 | 24.24025 | 89.20502 | 17723 ft | 409 kts | 111° |
| 2026-04-28 07:37 | 24.23035 | 89.23421 | 17264 ft | 408 kts | 111° |
| 2026-04-28 07:37 | 24.22048 | 89.26328 | 16832 ft | 407 kts | 111° |
| 2026-04-28 07:37 | 24.21061 | 89.29230 | 16391 ft | 406 kts | 111° |
| 2026-04-28 07:37 | 24.20078 | 89.32121 | 15960 ft | 405 kts | 111° |
| 2026-04-28 07:38 | 24.19096 | 89.35007 | 15522 ft | 404 kts | 111° |
| 2026-04-28 07:38 | 24.18117 | 89.37885 | 15104 ft | 403 kts | 111° |
| 2026-04-28 07:38 | 24.17136 | 89.40764 | 14683 ft | 403 kts | 111° |
| 2026-04-28 07:38 | 24.16157 | 89.43636 | 14253 ft | 403 kts | 111° |
| 2026-04-28 07:39 | 24.15177 | 89.46507 | 13817 ft | 403 kts | 111° |
| 2026-04-28 07:39 | 24.14197 | 89.49380 | 13356 ft | 403 kts | 111° |
| 2026-04-28 07:39 | 24.13215 | 89.52252 | 12900 ft | 402 kts | 110° |
| 2026-04-28 07:39 | 24.12252 | 89.55117 | 12467 ft | 401 kts | 108° |
| 2026-04-28 07:40 | 24.11613 | 89.58078 | 12018 ft | 398 kts | 96° |
| 2026-04-28 07:40 | 24.11394 | 89.61076 | 11602 ft | 394 kts | 92° |
| 2026-04-28 07:40 | 24.11183 | 89.64058 | 11173 ft | 393 kts | 93° |
| 2026-04-28 07:40 | 24.10944 | 89.67037 | 10757 ft | 392 kts | 93° |
| 2026-04-28 07:41 | 24.10692 | 89.69998 | 10344 ft | 390 kts | 93° |
| 2026-04-28 07:41 | 24.10437 | 89.72936 | 10105 ft | 383 kts | 93° |
| 2026-04-28 07:41 | 24.10185 | 89.75804 | 9928 ft | 375 kts | 93° |
| 2026-04-28 07:41 | 24.09937 | 89.78610 | 9754 ft | 367 kts | 93° |
| 2026-04-28 07:42 | 24.09694 | 89.81373 | 9492 ft | 362 kts | 93° |
| 2026-04-28 07:42 | 24.09535 | 89.83177 | 9368 ft | 356 kts | 93° |
| 2026-04-28 07:42 | 24.09225 | 89.86688 | 9242 ft | 337 kts | 93° |
| 2026-04-28 07:42 | 24.09003 | 89.89191 | 9151 ft | 324 kts | 93° |
| 2026-04-28 07:43 | 24.08861 | 89.90795 | 9068 ft | 316 kts | 93° |
| 2026-04-28 07:43 | 24.08652 | 89.93153 | 8877 ft | 307 kts | 93° |
| 2026-04-28 07:43 | 24.08449 | 89.95455 | 8601 ft | 301 kts | 93° |
| 2026-04-28 07:43 | 24.08248 | 89.97726 | 8273 ft | 299 kts | 93° |
| 2026-04-28 07:44 | 24.08048 | 89.99983 | 8048 ft | 299 kts | 93° |
| 2026-04-28 07:44 | 24.07857 | 90.02156 | 8052 ft | 294 kts | 93° |
| 2026-04-28 07:44 | 24.07966 | 90.04364 | 7752 ft | 288 kts | 78° |
| 2026-04-28 07:44 | 24.08347 | 90.06481 | 7235 ft | 280 kts | 75° |
| 2026-04-28 07:45 | 24.08777 | 90.08544 | 6819 ft | 278 kts | 75° |
| 2026-04-28 07:45 | 24.09396 | 90.10540 | 6407 ft | 278 kts | 58° |
| 2026-04-28 07:45 | 24.10479 | 90.12292 | 6011 ft | 278 kts | 51° |
| 2026-04-28 07:45 | 24.11667 | 90.13956 | 5567 ft | 277 kts | 50° |
| 2026-04-28 07:46 | 24.12878 | 90.15603 | 5119 ft | 278 kts | 50° |
| 2026-04-28 07:46 | 24.14109 | 90.17236 | 4657 ft | 276 kts | 50° |
| 2026-04-28 07:46 | 24.15330 | 90.18827 | 4141 ft | 271 kts | 50° |
| 2026-04-28 07:46 | 24.16550 | 90.20373 | 3664 ft | 265 kts | 50° |
| 2026-04-28 07:47 | 24.17702 | 90.21909 | 3207 ft | 254 kts | 64° |
| 2026-04-28 07:47 | 24.18156 | 90.23738 | 3058 ft | 249 kts | 95° |
| 2026-04-28 07:47 | 24.17703 | 90.25513 | 3015 ft | 243 kts | 126° |
| 2026-04-28 07:47 | 24.16505 | 90.26760 | 3032 ft | 239 kts | 153° |
| 2026-04-28 07:48 | 24.14920 | 90.27311 | 3047 ft | 241 kts | 172° |
| 2026-04-28 07:48 | 24.13233 | 90.27509 | 3089 ft | 246 kts | 176° |
| 2026-04-28 07:48 | 24.11522 | 90.27657 | 2988 ft | 248 kts | 176° |
| 2026-04-28 07:48 | 24.09821 | 90.27806 | 2647 ft | 248 kts | 175° |
| 2026-04-28 07:49 | 24.08104 | 90.27960 | 2423 ft | 242 kts | 175° |
| 2026-04-28 07:49 | 24.06468 | 90.28114 | 2130 ft | 236 kts | 175° |
| 2026-04-28 07:49 | 24.04849 | 90.28273 | 1895 ft | 230 kts | 175° |
| 2026-04-28 07:49 | 24.03283 | 90.28430 | 1842 ft | 228 kts | 175° |
| 2026-04-28 07:50 | 24.01656 | 90.28597 | 1832 ft | 240 kts | 175° |
| 2026-04-28 07:50 | 23.99969 | 90.28766 | 1808 ft | 244 kts | 174° |
| 2026-04-28 07:50 | 23.98346 | 90.28970 | 1765 ft | 221 kts | 165° |
| 2026-04-28 07:50 | 23.97018 | 90.29667 | 1808 ft | 212 kts | 147° |
| 2026-04-28 07:51 | 23.95817 | 90.30595 | 1823 ft | 209 kts | 146° |
| 2026-04-28 07:51 | 23.94660 | 90.31523 | 1841 ft | 206 kts | 145° |
| 2026-04-28 07:51 | 23.93503 | 90.32449 | 1800 ft | 206 kts | 147° |
| 2026-04-28 07:51 | 23.92373 | 90.33362 | 1776 ft | 195 kts | 146° |
| 2026-04-28 07:52 | 23.91335 | 90.34196 | 1770 ft | 177 kts | 146° |
| 2026-04-28 07:52 | 23.90364 | 90.34974 | 1818 ft | 173 kts | 146° |
| 2026-04-28 07:52 | 23.89431 | 90.35717 | 1817 ft | 157 kts | 146° |
| 2026-04-28 07:52 | 23.88597 | 90.36381 | 1773 ft | 139 kts | 147° |
| 2026-04-28 07:53 | 23.87819 | 90.37001 | 1366 ft | 139 kts | 146° |
| 2026-04-28 07:53 | 23.87046 | 90.37632 | 939 ft | 139 kts | 144° |
| 2026-04-28 07:53 | 23.86251 | 90.38223 | 639 ft | 135 kts | 147° |
| 2026-04-28 07:53 | 23.85494 | 90.38860 | 873 ft | 143 kts | 134° |
| 2026-04-28 07:54 | 23.85006 | 90.39780 | 1442 ft | 142 kts | 111° |
| 2026-04-28 07:54 | 23.84955 | 90.41023 | 2162 ft | 191 kts | 84° |
| 2026-04-28 07:54 | 23.85461 | 90.42428 | 3267 ft | 218 kts | 62° |
| 2026-04-28 07:54 | 23.86511 | 90.43791 | 4204 ft | 252 kts | 41° |
| 2026-04-28 07:55 | 23.88087 | 90.44968 | 4550 ft | 312 kts | 25° |
| 2026-04-28 07:55 | 23.90356 | 90.45633 | 4359 ft | 345 kts | 2° |
| 2026-04-28 07:55 | 23.92764 | 90.45322 | 4145 ft | 354 kts | 340° |
| 2026-04-28 07:55 | 23.94964 | 90.44155 | 4103 ft | 352 kts | 323° |
| 2026-04-28 07:56 | 23.96773 | 90.42346 | 3839 ft | 349 kts | 310° |
| 2026-04-28 07:56 | 23.98567 | 90.40693 | 3521 ft | 330 kts | 327° |
| 2026-04-28 07:56 | 24.00548 | 90.39567 | 3230 ft | 312 kts | 333° |
| 2026-04-28 07:56 | 24.02339 | 90.38391 | 2960 ft | 292 kts | 314° |
| 2026-04-28 07:57 | 24.03458 | 90.36650 | 2705 ft | 272 kts | 289° |
| 2026-04-28 07:57 | 24.03743 | 90.34697 | 2449 ft | 255 kts | 260° |
| 2026-04-28 07:57 | 24.03318 | 90.32875 | 2193 ft | 241 kts | 242° |
| 2026-04-28 07:57 | 24.02501 | 90.31355 | 2016 ft | 230 kts | 233° |
| 2026-04-28 07:58 | 24.01611 | 90.29918 | 1983 ft | 226 kts | 233° |
| 2026-04-28 07:58 | 24.00572 | 90.28726 | 1900 ft | 211 kts | 209° |
| 2026-04-28 07:58 | 23.99204 | 90.28343 | 1835 ft | 200 kts | 182° |
| 2026-04-28 07:58 | 23.97841 | 90.28330 | 1805 ft | 190 kts | 178° |
| 2026-04-28 07:59 | 23.96632 | 90.28680 | 1778 ft | 177 kts | 146° |
| 2026-04-28 07:59 | 23.95980 | 90.29750 | 1772 ft | 169 kts | 105° |
| 2026-04-28 07:59 | 23.95893 | 90.30947 | 1762 ft | 147 kts | 97° |
| 2026-04-28 07:59 | 23.95849 | 90.31979 | 1682 ft | 122 kts | 97° |
| 2026-04-28 08:00 | 23.95739 | 90.32958 | 1574 ft | 159 kts | 120° |
| 2026-04-28 08:00 | 23.94856 | 90.33717 | 1618 ft | 174 kts | 169° |
| 2026-04-28 08:00 | 23.93761 | 90.33565 | 1491 ft | 142 kts | 198° |
| 2026-04-28 08:00 | 23.92784 | 90.33538 | 1650 ft | 162 kts | 163° |
| 2026-04-28 08:01 | 23.91799 | 90.34139 | 1497 ft | 158 kts | 149° |
| 2026-04-28 08:01 | 23.90902 | 90.34753 | 1289 ft | 145 kts | 150° |
| 2026-04-28 08:01 | 23.90074 | 90.35346 | 1095 ft | 142 kts | 147° |
| 2026-04-28 08:01 | 23.89247 | 90.35960 | 952 ft | 147 kts | 147° |
| 2026-04-28 08:02 | 23.88414 | 90.36589 | 800 ft | 144 kts | 146° |
| 2026-04-28 08:02 | 23.87622 | 90.37205 | 557 ft | 134 kts | 144° |
| 2026-04-28 08:02 | 23.86864 | 90.37794 | 386 ft | 135 kts | 145° |
| 2026-04-28 08:02 | 23.86094 | 90.38375 | 272 ft | 134 kts | 145° |
| 2026-04-28 08:03 | 23.85348 | 90.38969 | 54 ft | 131 kts | 144° |
| 2026-04-28 08:03 | 23.84669 | 90.39508 | 42 ft | 100 kts | 144° |
| 2026-04-28 08:03 | 23.84238 | 90.39856 | 40 ft | 68 kts | 143° |
| 2026-04-28 08:03 | 23.84010 | 90.40198 | 41 ft | 37 kts | 108° |
| 2026-04-28 08:04 | 23.84031 | 90.40432 | 41 ft | 30 kts | 60° |
| 2026-04-28 08:04 | 23.84157 | 90.40582 | 41 ft | 9 kts | 8° |
| 2026-04-28 08:04 | 23.84214 | 90.40551 | 41 ft | 10 kts | 332° |
| 2026-04-28 08:04 | 23.84288 | 90.40495 | 41 ft | 16 kts | 323° |
| 2026-04-28 08:05 | 23.84377 | 90.40420 | 41 ft | 16 kts | 322° |
| 2026-04-28 08:05 | 23.84457 | 90.40353 | 41 ft | 13 kts | 322° |
| 2026-04-28 08:05 | 23.84531 | 90.40291 | 40 ft | 13 kts | 324° |
| 2026-04-28 08:05 | 23.84606 | 90.40231 | 41 ft | 13 kts | 324° |
| 2026-04-28 08:06 | 23.84682 | 90.40172 | 41 ft | 13 kts | 324° |
| 2026-04-28 08:06 | 23.84757 | 90.40113 | 41 ft | 13 kts | 324° |
| 2026-04-28 08:06 | 23.84833 | 90.40054 | 48 ft | 13 kts | 324° |
| 2026-04-28 08:06 | 23.84908 | 90.39994 | 41 ft | 13 kts | 323° |
| 2026-04-28 08:07 | 23.84983 | 90.39934 | 41 ft | 13 kts | 323° |
| 2026-04-28 08:07 | 23.85059 | 90.39874 | 41 ft | 13 kts | 323° |
| 2026-04-28 08:07 | 23.85134 | 90.39814 | 41 ft | 13 kts | 323° |
| 2026-04-28 08:07 | 23.85209 | 90.39754 | 41 ft | 13 kts | 323° |
| 2026-04-28 08:08 | 23.85284 | 90.39694 | 41 ft | 13 kts | 323° |
| 2026-04-28 08:08 | 23.85360 | 90.39635 | 41 ft | 13 kts | 327° |
| 2026-04-28 08:08 | 23.85445 | 90.39602 | 41 ft | 14 kts | 20° |
| 2026-04-28 08:08 | 23.85507 | 90.39674 | 41 ft | 10 kts | 52° |
| 2026-04-28 08:09 | 23.85568 | 90.39691 | 41 ft | 11 kts | 330° |
| 2026-04-28 08:09 | 23.85606 | 90.39665 | 41 ft | 0 kts | 326° |
| 2026-04-28 08:09 | 23.85612 | 90.39661 | 41 ft | 2 kts | 326° |
| 2026-04-28 08:09 | 23.85628 | 90.39641 | 41 ft | 6 kts | 296° |
| 2026-04-28 08:10 | 23.85614 | 90.39588 | 41 ft | 0 kts | 235° |
| 2026-04-28 08:10 | 23.85600 | 90.39567 | 41 ft | 3 kts | 233° |
| 2026-04-28 08:10 | 23.85597 | 90.39563 | 41 ft | 0 kts | 233° |